Time;durP1;ratioP1;P1;durP2;ratioP2;P2;SDS_P1;SDS_P2;PMS_P1;PMS_P2;Temp;Humidity;BMP_temperature;BMP_pressure;BME280_temperature;BME280_humidity;BME280_pressure;Samples;Min_cycle;Max_cycle;Signal;HPM_P1;HPM_P2
2023/10/31 00:01:02;;;;;;;8.13;2.95;;;;;;;12.07;65.32;94144.63;5046679;28;20093;-69
2023/10/31 00:03:27;;;;;;;10.88;3.63;;;;;;;12.04;65.61;94145.25;5046553;28;20075;-69
2023/10/31 00:05:52;;;;;;;7.78;2.85;;;;;;;11.98;65.95;94144.59;5046375;28;20033;-70
2023/10/31 00:08:21;;;;;;;6.20;2.60;;;;;;;11.92;66.17;94151.19;5046625;28;20021;-69
2023/10/31 00:10:46;;;;;;;9.45;3.50;;;;;;;11.92;66.58;94140.53;5046442;28;20025;-69
2023/10/31 00:13:12;;;;;;;10.57;3.38;;;;;;;11.94;66.28;94132.19;5046384;28;20061;-69
2023/10/31 00:15:37;;;;;;;7.55;2.70;;;;;;;11.94;66.14;94132.97;5046092;28;20320;-69
2023/10/31 00:18:02;;;;;;;19.65;4.78;;;;;;;11.94;66.51;94137.53;5046262;28;20060;-69
2023/10/31 00:20:29;;;;;;;12.38;3.25;;;;;;;11.94;66.19;94129.53;5044800;28;20076;-69
2023/10/31 00:22:54;;;;;;;6.22;2.75;;;;;;;11.93;66.25;94130.66;5046235;28;20034;-70
2023/10/31 00:25:20;;;;;;;5.95;3.38;;;;;;;11.89;66.68;94125.13;5046131;28;20223;-69
2023/10/31 00:27:45;;;;;;;11.20;3.35;;;;;;;11.90;66.54;94120.56;5046005;28;20026;-69
2023/10/31 00:30:11;;;;;;;11.75;3.80;;;;;;;11.93;66.41;94133.31;5045784;28;20259;-69
2023/10/31 00:32:36;;;;;;;10.65;3.17;;;;;;;11.89;66.48;94135.81;5044620;28;20055;-79
2023/10/31 00:35:01;;;;;;;9.98;3.67;;;;;;;11.85;66.72;94116.94;5044438;28;20135;-77
2023/10/31 00:37:27;;;;;;;12.68;3.67;;;;;;;11.81;67.06;94123.22;5045944;28;20319;-78
2023/10/31 00:39:52;;;;;;;9.90;3.30;;;;;;;11.71;67.02;94126.97;5045838;28;20021;-77
2023/10/31 00:42:18;;;;;;;9.60;3.72;;;;;;;11.70;67.28;94111.25;5045909;28;20192;-78
2023/10/31 00:44:43;;;;;;;14.85;4.30;;;;;;;11.65;67.45;94114.88;5046277;28;20270;-78
2023/10/31 00:47:09;;;;;;;10.82;3.75;;;;;;;11.62;67.54;94112.81;5044823;28;20365;-84
2023/10/31 00:49:35;;;;;;;10.75;3.97;;;;;;;11.56;67.80;94112.22;5046122;28;20044;-83
2023/10/31 00:52:01;;;;;;;8.25;3.72;;;;;;;11.54;67.83;94113.59;5045767;28;20040;-83
2023/10/31 00:54:26;;;;;;;8.07;3.70;;;;;;;11.54;68.03;94113.59;5044549;28;20030;-83
2023/10/31 00:56:54;;;;;;;13.00;3.70;;;;;;;11.47;68.20;94107.94;5045004;28;20092;-86
2023/10/31 00:59:19;;;;;;;8.02;3.53;;;;;;;11.42;68.66;94100.88;5045024;28;20397;-86
2023/10/31 01:01:44;;;;;;;14.73;4.15;;;;;;;11.43;68.77;94110.44;5046426;28;20057;-87
2023/10/31 01:04:10;;;;;;;9.73;4.05;;;;;;;11.41;68.87;94094.75;5045572;28;20022;-82
2023/10/31 01:06:43;;;;;;;12.02;4.13;;;;;;;11.36;69.02;94091.47;5045775;28;20037;-82
2023/10/31 01:09:11;;;;;;;9.82;3.90;;;;;;;11.31;69.19;94091.59;5045476;28;20033;-82
2023/10/31 01:11:37;;;;;;;9.65;3.63;;;;;;;11.29;69.60;94093.78;5045549;28;20025;-82
2023/10/31 01:14:03;;;;;;;10.52;3.97;;;;;;;11.28;69.50;94097.56;5045311;28;20021;-82
2023/10/31 01:16:28;;;;;;;10.13;4.20;;;;;;;11.28;69.89;94089.56;5045517;28;20219;-82
2023/10/31 01:18:54;;;;;;;9.35;4.15;;;;;;;11.27;69.91;94090.66;5044104;28;20041;-82
2023/10/31 01:21:19;;;;;;;12.63;3.90;;;;;;;11.27;70.00;94088.75;5045019;28;20027;-82
2023/10/31 01:23:44;;;;;;;11.60;4.10;;;;;;;11.23;70.06;94082.47;5045481;28;20017;-82
2023/10/31 01:26:10;;;;;;;12.38;4.47;;;;;;;11.24;70.42;94089.41;5045223;28;20215;-82
2023/10/31 01:28:35;;;;;;;11.07;3.90;;;;;;;11.21;70.58;94079.31;5045128;28;20093;-82
2023/10/31 01:31:01;;;;;;;13.68;5.63;;;;;;;11.21;70.56;94085.47;5043891;28;20040;-82
2023/10/31 01:33:28;;;;;;;10.57;4.32;;;;;;;11.22;70.47;94086.25;5045051;28;20022;-82
2023/10/31 01:35:54;;;;;;;13.57;4.20;;;;;;;11.17;70.25;94079.19;5043754;28;20018;-82
2023/10/31 01:38:19;;;;;;;12.05;4.20;;;;;;;11.13;70.50;94077.44;5044898;28;20056;-82
2023/10/31 01:40:49;;;;;;;9.90;4.20;;;;;;;11.12;70.61;94071.31;5045334;28;20033;-83
2023/10/31 01:43:29;;;;;;;19.00;4.55;;;;;;;11.09;70.58;94082.59;5045068;28;20021;-82
2023/10/31 01:45:54;;;;;;;13.10;5.68;;;;;;;11.06;70.75;94079.78;5044912;28;20096;-83
2023/10/31 01:48:20;;;;;;;11.38;4.10;;;;;;;10.98;71.01;94082.09;5044675;28;20087;-82
2023/10/31 01:50:46;;;;;;;13.27;4.85;;;;;;;10.92;71.29;94080.66;5045091;28;20067;-83
2023/10/31 01:53:11;;;;;;;18.50;5.65;;;;;;;10.91;71.33;94078.31;5044469;28;20029;-83
2023/10/31 01:55:37;;;;;;;10.13;3.45;;;;;;;10.88;71.48;94077.06;5044447;28;20029;-80
2023/10/31 01:58:03;;;;;;;10.70;3.60;;;;;;;10.82;71.74;94073.72;5044478;28;20021;-80
2023/10/31 02:00:28;;;;;;;17.52;5.97;;;;;;;10.79;72.19;94062.91;5044543;28;20037;-79
2023/10/31 02:02:54;;;;;;;13.70;4.40;;;;;;;10.78;72.43;94067.44;5044271;28;20024;-79
2023/10/31 02:05:20;;;;;;;9.27;3.92;;;;;;;10.75;72.60;94064.63;5044410;28;20017;-79
2023/10/31 02:07:46;;;;;;;8.63;3.63;;;;;;;10.75;73.04;94062.75;5043432;28;20032;-79
2023/10/31 02:10:11;;;;;;;15.27;3.70;;;;;;;10.79;73.31;94068.25;5044304;28;20025;-79
2023/10/31 02:12:37;;;;;;;10.00;4.47;;;;;;;10.77;73.39;94054.44;5044080;28;20052;-79
2023/10/31 02:15:06;;;;;;;5.10;2.78;;;;;;;10.71;73.85;94056.47;5044219;28;20316;-79
2023/10/31 02:17:31;;;;;;;10.93;3.30;;;;;;;10.69;73.99;94057.88;5044130;28;20311;-79
2023/10/31 02:19:57;;;;;;;9.00;3.75;;;;;;;10.69;74.13;94057.88;5043931;28;20056;-79
2023/10/31 02:22:23;;;;;;;4.50;2.65;;;;;;;10.69;74.14;94050.66;5043790;28;20040;-79
2023/10/31 02:24:51;;;;;;;8.13;3.65;;;;;;;10.71;74.23;94050.34;5044162;28;20009;-79
2023/10/31 02:27:16;;;;;;;14.48;3.45;;;;;;;10.64;74.58;94040.91;5044063;28;20017;-79
2023/10/31 02:29:42;;;;;;;5.15;2.90;;;;;;;10.66;75.05;94047.81;5043956;28;20036;-83
2023/10/31 02:32:07;;;;;;;11.18;3.40;;;;;;;10.64;75.19;94046.25;5042697;28;20021;-81
2023/10/31 02:34:34;;;;;;;6.68;2.97;;;;;;;10.61;75.30;94041.53;5043878;28;20017;-81
2023/10/31 02:36:59;;;;;;;12.10;3.53;;;;;;;10.62;75.43;94045.78;5043920;28;20048;-81
2023/10/31 02:39:25;;;;;;;9.25;2.88;;;;;;;10.60;75.33;94045.28;5043904;28;20021;-81
2023/10/31 02:41:50;;;;;;;12.45;3.45;;;;;;;10.58;75.31;94042.16;5043648;28;20021;-81
2023/10/31 02:44:18;;;;;;;8.20;3.65;;;;;;;10.54;75.47;94037.72;5044182;28;20124;-81
2023/10/31 02:46:44;;;;;;;9.23;3.35;;;;;;;10.57;75.50;94045.13;5043939;28;20027;-81
2023/10/31 02:49:09;;;;;;;10.57;3.05;;;;;;;10.55;75.38;94042.75;5043708;28;20013;-81
2023/10/31 02:51:35;;;;;;;7.95;3.40;;;;;;;10.50;76.18;94042.91;5042412;28;20028;-81
2023/10/31 02:54:03;;;;;;;9.95;4.05;;;;;;;10.51;76.75;94039.13;5042695;28;20036;-81
2023/10/31 02:56:28;;;;;;;17.63;3.88;;;;;;;10.57;77.24;94043.22;5042609;28;20021;-80
2023/10/31 02:58:54;;;;;;;11.80;3.78;;;;;;;10.63;77.59;94050.00;5043631;28;20254;-81
2023/10/31 03:01:20;;;;;;;8.70;3.75;;;;;;;10.68;77.81;94048.28;5043470;28;20411;-81
2023/10/31 03:03:48;;;;;;;10.50;4.40;;;;;;;10.68;77.75;94050.94;5042480;28;20013;-81
2023/10/31 03:06:13;;;;;;;9.93;3.67;;;;;;;10.67;77.63;94044.06;5043552;28;20093;-80
2023/10/31 03:08:39;;;;;;;7.80;3.28;;;;;;;10.70;76.96;94044.22;5043409;28;20316;-81
2023/10/31 03:11:04;;;;;;;7.32;3.60;;;;;;;10.67;76.84;94052.06;5043274;28;20017;-81
2023/10/31 03:13:30;;;;;;;5.63;3.10;;;;;;;10.64;76.80;94051.59;5043082;28;20017;-80
2023/10/31 03:15:55;;;;;;;9.85;3.40;;;;;;;10.61;76.79;94046.84;5042850;28;20029;-80
2023/10/31 03:18:21;;;;;;;14.73;4.07;;;;;;;10.59;76.91;94042.94;5041568;28;20021;-80
2023/10/31 03:20:55;;;;;;;12.43;4.20;;;;;;;10.60;76.82;94042.63;5042951;28;20072;-81
2023/10/31 03:23:21;;;;;;;9.57;3.90;;;;;;;10.57;76.69;94035.22;5043036;28;20032;-81
2023/10/31 03:25:46;;;;;;;8.07;3.88;;;;;;;10.54;76.63;94035.88;5041809;28;20017;-81
2023/10/31 03:28:19;;;;;;;12.38;4.20;;;;;;;10.56;76.99;94035.53;5042957;28;20022;-80
2023/10/31 03:30:47;;;;;;;12.88;6.07;;;;;;;10.56;76.89;94028.34;5043261;28;20022;-80
2023/10/31 03:33:12;;;;;;;13.23;4.95;;;;;;;10.53;76.70;94022.84;5041806;28;20039;-80
2023/10/31 03:35:37;;;;;;;13.63;4.40;;;;;;;10.51;76.60;94017.81;5041620;28;20029;-80
2023/10/31 03:38:03;;;;;;;7.68;4.70;;;;;;;10.49;76.62;94032.53;5042811;28;20052;-80
2023/10/31 03:40:28;;;;;;;6.38;3.55;;;;;;;10.45;76.75;94016.38;5043148;28;20044;-80
2023/10/31 03:42:54;;;;;;;12.73;4.80;;;;;;;10.46;76.93;94017.16;5041811;28;20323;-80
2023/10/31 03:45:19;;;;;;;15.45;5.47;;;;;;;10.43;77.22;94008.69;5043187;28;20223;-80
2023/10/31 03:47:45;;;;;;;14.00;4.43;;;;;;;10.42;77.47;94009.78;5041470;28;20033;-80
2023/10/31 03:50:10;;;;;;;16.77;5.10;;;;;;;10.44;77.87;94002.28;5042791;28;20029;-80
2023/10/31 03:52:35;;;;;;;14.13;4.50;;;;;;;10.41;78.20;94018.88;5042845;28;20021;-80
2023/10/31 03:55:01;;;;;;;13.43;4.43;;;;;;;10.42;77.90;94020.47;5041603;28;20053;-78
2023/10/31 03:57:26;;;;;;;15.63;4.30;;;;;;;10.27;77.14;94028.03;5042624;28;20084;-77
2023/10/31 03:59:51;;;;;;;12.02;4.43;;;;;;;10.10;77.28;94020.75;5042622;28;20219;-77
2023/10/31 04:02:17;;;;;;;10.27;3.97;;;;;;;9.96;78.03;94023.47;5042800;28;20063;-77
2023/10/31 04:04:42;;;;;;;12.68;4.68;;;;;;;9.67;79.12;94024.72;5042641;28;20021;-78
2023/10/31 04:07:08;;;;;;;14.80;5.32;;;;;;;9.66;79.19;94017.81;5042574;28;20120;-78
2023/10/31 04:09:33;;;;;;;11.70;4.90;;;;;;;9.63;79.39;94029.84;5042744;28;20026;-77
2023/10/31 04:11:59;;;;;;;12.57;4.75;;;;;;;9.59;79.52;94023.56;5042591;28;20308;-77
2023/10/31 04:14:24;;;;;;;14.48;4.95;;;;;;;9.62;79.46;94032.81;5042465;28;20391;-77
2023/10/31 04:16:50;;;;;;;11.82;5.30;;;;;;;9.65;79.29;94018.91;5042394;28;20022;-78
2023/10/31 04:19:15;;;;;;;15.50;5.50;;;;;;;9.67;79.32;94022.06;5042359;28;20053;-78
2023/10/31 04:21:40;;;;;;;13.88;5.25;;;;;;;9.67;78.96;94008.75;5042516;28;20021;-77
2023/10/31 04:24:06;;;;;;;11.93;5.65;;;;;;;9.65;78.59;94016.25;5042448;28;20014;-77
2023/10/31 04:26:31;;;;;;;14.60;5.85;;;;;;;9.63;78.34;94002.47;5042309;28;20028;-77
2023/10/31 04:28:59;;;;;;;14.77;5.75;;;;;;;9.62;78.01;94006.19;5042317;28;20070;-77
2023/10/31 04:31:24;;;;;;;14.07;5.00;;;;;;;9.59;77.95;94004.94;5044435;28;20101;-77
2023/10/31 04:33:50;;;;;;;14.75;5.00;;;;;;;9.56;77.90;93996.75;5046215;28;20033;-79
2023/10/31 04:36:15;;;;;;;13.65;5.30;;;;;;;9.54;77.72;94002.38;5046134;28;20050;-80
2023/10/31 04:38:40;;;;;;;17.77;4.78;;;;;;;9.52;78.02;94001.91;5045890;28;20025;-80
2023/10/31 04:41:08;;;;;;;14.10;5.25;;;;;;;9.47;77.92;93996.72;5045933;28;20021;-80
2023/10/31 04:43:33;;;;;;;11.07;3.88;;;;;;;9.46;78.37;93994.34;5045865;28;20319;-79
2023/10/31 04:45:59;;;;;;;11.35;4.95;;;;;;;9.47;78.57;93994.03;5045774;28;20127;-80
2023/10/31 04:48:24;;;;;;;15.18;5.75;;;;;;;9.47;78.39;94010.00;5045598;28;20331;-80
2023/10/31 04:50:49;;;;;;;8.90;5.07;;;;;;;9.45;78.15;94017.50;5045747;28;20014;-80
2023/10/31 04:53:15;;;;;;;12.95;5.20;;;;;;;9.41;77.59;94011.22;5045962;28;20056;-81
2023/10/31 04:55:40;;;;;;;12.52;5.22;;;;;;;9.37;78.26;94020.88;5045782;28;20021;-81
2023/10/31 04:58:05;;;;;;;16.67;5.20;;;;;;;9.30;78.54;94021.31;5045661;28;20311;-79
2023/10/31 05:00:31;;;;;;;16.08;5.38;;;;;;;9.31;79.03;94030.06;5045641;28;20068;-78
2023/10/31 05:02:57;;;;;;;7.45;4.60;;;;;;;9.26;78.96;94022.19;5045723;28;20020;-77
2023/10/31 05:05:23;;;;;;;14.63;6.13;;;;;;;9.13;80.17;94026.47;5045531;28;20018;-77
2023/10/31 05:07:48;;;;;;;11.15;5.32;;;;;;;9.17;80.09;94028.22;5045382;28;20024;-77
2023/10/31 05:10:14;;;;;;;17.83;5.90;;;;;;;9.17;80.06;94022.13;5045610;28;20021;-77
2023/10/31 05:12:39;;;;;;;14.35;5.18;;;;;;;9.18;80.14;94024.50;5045439;28;20017;-77
2023/10/31 05:15:05;;;;;;;12.70;5.78;;;;;;;9.19;80.05;94025.28;5045088;28;20017;-82
2023/10/31 05:17:31;;;;;;;13.27;5.90;;;;;;;9.21;79.91;94023.09;5044209;28;20327;-82
2023/10/31 05:19:56;;;;;;;15.20;5.85;;;;;;;9.24;79.93;94038.47;5045198;28;20109;-82
2023/10/31 05:22:24;;;;;;;17.63;5.13;;;;;;;9.20;79.35;94032.94;5045187;28;20017;-82
2023/10/31 05:24:49;;;;;;;11.63;5.97;;;;;;;9.19;79.56;94030.59;5044218;28;20019;-82
2023/10/31 05:27:15;;;;;;;15.60;6.35;;;;;;;9.17;79.96;94032.75;5045235;28;20267;-81
2023/10/31 05:29:40;;;;;;;20.50;5.97;;;;;;;9.18;80.08;94034.31;5043829;28;20100;-82
2023/10/31 05:32:06;;;;;;;12.45;5.95;;;;;;;9.20;80.11;94038.28;5044991;28;20041;-81
2023/10/31 05:34:31;;;;;;;16.92;6.32;;;;;;;9.24;80.02;94028.63;5045060;28;20324;-81
2023/10/31 05:36:57;;;;;;;14.93;6.40;;;;;;;9.31;79.79;94032.72;5044965;28;20029;-81
2023/10/31 05:39:22;;;;;;;14.32;6.28;;;;;;;9.33;79.95;94034.00;5044871;28;20224;-79
2023/10/31 05:41:47;;;;;;;11.93;6.18;;;;;;;9.41;80.14;94038.59;5044863;28;20092;-79
2023/10/31 05:44:13;;;;;;;14.85;6.15;;;;;;;9.48;79.68;94043.50;5044695;28;20018;-79
2023/10/31 05:46:39;;;;;;;13.15;5.72;;;;;;;9.51;79.99;94031.50;5044715;28;20029;-79
2023/10/31 05:49:07;;;;;;;17.75;6.25;;;;;;;9.55;80.24;94027.91;5044838;28;20208;-79
2023/10/31 05:51:33;;;;;;;17.00;6.43;;;;;;;9.59;80.32;94015.56;5044681;28;20088;-79
2023/10/31 05:53:59;;;;;;;17.50;6.18;;;;;;;9.68;79.97;94031.59;5043451;28;20021;-80
2023/10/31 05:56:25;;;;;;;16.40;6.05;;;;;;;9.74;80.01;94051.69;5043406;28;20316;-80
2023/10/31 05:58:50;;;;;;;21.98;5.75;;;;;;;9.76;80.07;94046.06;5044488;28;20128;-82
2023/10/31 06:01:16;;;;;;;12.73;5.20;;;;;;;9.81;80.40;94068.03;5044725;28;20044;-78
2023/10/31 06:03:45;;;;;;;21.30;6.25;;;;;;;9.73;79.54;94071.41;5044478;28;20033;-78
2023/10/31 06:06:11;;;;;;;25.80;7.40;;;;;;;9.72;79.45;94067.16;5043202;28;20030;-79
2023/10/31 06:08:38;;;;;;;22.67;7.88;;;;;;;9.70;79.40;94069.34;5044400;28;20017;-80
2023/10/31 06:11:04;;;;;;;27.73;8.40;;;;;;;9.72;79.50;94063.72;5044246;28;20051;-79
2023/10/31 06:13:31;;;;;;;24.50;8.57;;;;;;;9.80;79.26;94069.09;5044024;28;20063;-80
2023/10/31 06:15:57;;;;;;;25.50;7.63;;;;;;;9.88;78.72;94072.16;5044281;28;20032;-80
2023/10/31 06:18:25;;;;;;;30.52;9.88;;;;;;;9.83;78.74;94076.50;5044303;28;20044;-79
2023/10/31 06:20:52;;;;;;;35.03;8.35;;;;;;;9.85;78.94;94073.53;5044154;28;20025;-79
2023/10/31 06:23:17;;;;;;;28.02;9.20;;;;;;;9.80;78.82;94071.75;5044198;28;20279;-78
2023/10/31 06:25:43;;;;;;;27.02;9.07;;;;;;;9.77;78.46;94072.38;5043943;28;20014;-80
2023/10/31 06:28:08;;;;;;;21.08;9.13;;;;;;;9.72;77.90;94075.16;5043968;28;20044;-79
2023/10/31 06:30:33;;;;;;;23.60;10.05;;;;;;;9.71;78.59;94078.91;5044041;28;20025;-79
2023/10/31 06:33:00;;;;;;;21.63;9.40;;;;;;;9.77;78.65;94082.22;5043942;28;20308;-79
2023/10/31 06:35:25;;;;;;;34.22;10.43;;;;;;;9.83;78.71;94083.69;5043700;28;20025;-81
2023/10/31 06:37:56;;;;;;;22.15;9.95;;;;;;;9.91;78.28;94079.50;5043850;28;20063;-79
2023/10/31 06:40:23;;;;;;;26.27;10.88;;;;;;;9.97;78.77;94075.63;5043706;28;20026;-82
2023/10/31 06:42:48;;;;;;;16.20;9.23;;;;;;;10.03;78.88;94077.09;5043767;28;20249;-82
2023/10/31 06:45:13;;;;;;;27.15;10.15;;;;;;;10.10;78.83;94074.78;5043894;28;20028;-82
2023/10/31 06:47:39;;;;;;;21.73;9.68;;;;;;;10.23;78.78;94070.47;5042551;28;20032;-78
2023/10/31 06:50:07;;;;;;;26.55;10.32;;;;;;;10.37;78.31;94054.44;5043793;28;20052;-82
2023/10/31 06:52:32;;;;;;;28.20;10.25;;;;;;;10.49;78.09;94057.31;5043247;28;20052;-84
2023/10/31 06:55:00;;;;;;;25.33;10.20;;;;;;;10.63;77.50;94059.88;5043006;28;20029;-82
2023/10/31 06:57:26;;;;;;;30.10;11.02;;;;;;;10.76;77.32;94069.63;5043507;28;20025;-78
2023/10/31 06:59:51;;;;;;;32.38;10.75;;;;;;;10.88;76.93;94055.72;5043450;28;20093;-78
2023/10/31 07:02:17;;;;;;;27.00;10.13;;;;;;;10.98;76.62;94063.44;5042254;28;20025;-79
2023/10/31 07:04:43;;;;;;;28.67;11.05;;;;;;;11.15;75.20;94064.56;5043385;28;20021;-81
2023/10/31 07:07:08;;;;;;;27.70;11.52;;;;;;;11.23;74.79;94050.44;5043388;28;20032;-80
2023/10/31 07:09:34;;;;;;;23.38;9.45;;;;;;;11.34;74.59;94059.75;5043492;28;20052;-81
2023/10/31 07:11:59;;;;;;;26.08;10.43;;;;;;;11.49;73.61;94052.38;5043151;28;20033;-81
2023/10/31 07:14:24;;;;;;;19.83;10.40;;;;;;;11.56;73.76;94060.69;5042057;28;20033;-82
2023/10/31 07:16:50;;;;;;;26.42;10.35;;;;;;;11.64;73.30;94059.91;5043371;28;20033;-81
2023/10/31 07:19:15;;;;;;;28.30;10.25;;;;;;;11.70;73.31;94057.88;5043204;28;20041;-82
2023/10/31 07:21:41;;;;;;;30.15;11.10;;;;;;;11.75;73.08;94058.50;5041903;28;20052;-82
2023/10/31 07:24:08;;;;;;;24.55;9.38;;;;;;;11.82;72.98;94058.81;5043002;28;20036;-81
2023/10/31 07:26:34;;;;;;;21.10;10.55;;;;;;;11.92;72.77;94051.59;5042990;28;20028;-81
2023/10/31 07:29:00;;;;;;;28.15;10.13;;;;;;;12.02;72.08;94053.94;5043009;28;20025;-74
2023/10/31 07:31:25;;;;;;;26.40;10.05;;;;;;;12.11;71.78;94059.25;5042802;28;20052;-72
2023/10/31 07:33:50;;;;;;;29.10;8.88;;;;;;;12.20;71.76;94055.47;5042487;28;20040;-73
2023/10/31 07:36:16;;;;;;;24.05;9.15;;;;;;;12.28;71.27;94061.13;5043031;28;20043;-72
2023/10/31 07:38:41;;;;;;;20.70;9.57;;;;;;;12.38;70.42;94055.44;5042603;28;20067;-72
2023/10/31 07:41:07;;;;;;;20.58;9.88;;;;;;;12.49;70.15;94040.59;5042738;28;20029;-73
2023/10/31 07:43:32;;;;;;;32.03;9.88;;;;;;;12.60;69.97;94047.19;5042823;28;20071;-73
2023/10/31 07:45:57;;;;;;;27.10;9.45;;;;;;;12.74;69.45;94041.63;5042388;28;20092;-73
2023/10/31 07:48:23;;;;;;;26.65;10.40;;;;;;;12.85;69.66;94036.69;5042367;28;20025;-70
2023/10/31 07:50:48;;;;;;;24.85;9.93;;;;;;;12.95;69.35;94030.97;5041602;28;20048;-71
2023/10/31 07:53:14;;;;;;;26.23;11.45;;;;;;;13.09;69.23;94024.59;5042766;28;20033;-71
2023/10/31 07:55:39;;;;;;;29.35;9.55;;;;;;;13.23;68.60;94025.16;5042415;28;20431;-71
2023/10/31 07:58:10;;;;;;;24.80;9.77;;;;;;;13.33;68.28;94022.13;5042296;28;20025;-73
2023/10/31 08:00:36;;;;;;;33.87;9.27;;;;;;;13.44;67.88;94009.91;5042619;28;20100;-73
2023/10/31 08:03:02;;;;;;;19.60;7.55;;;;;;;13.58;68.02;94011.53;5042619;28;20091;-73
2023/10/31 08:05:28;;;;;;;21.50;8.45;;;;;;;13.70;67.41;94008.91;5043511;28;20021;-73
2023/10/31 08:07:53;;;;;;;20.65;8.10;;;;;;;13.75;66.75;94011.38;5046333;28;20087;-70
2023/10/31 08:10:18;;;;;;;19.98;7.43;;;;;;;13.84;66.65;94008.63;5046341;28;20036;-82
2023/10/31 08:12:44;;;;;;;17.80;6.78;;;;;;;13.98;66.42;93997.59;5046586;28;20021;-81
2023/10/31 08:15:12;;;;;;;15.70;6.03;;;;;;;14.09;66.55;94017.53;5045095;28;20323;-81
2023/10/31 08:17:38;;;;;;;13.65;6.63;;;;;;;14.16;66.15;94000.91;5046249;28;20068;-80
2023/10/31 08:20:04;;;;;;;25.25;6.88;;;;;;;14.28;66.27;94000.16;5044835;28;20052;-81
2023/10/31 08:22:29;;;;;;;17.60;7.07;;;;;;;14.44;65.54;94003.75;5046175;28;20025;-80
2023/10/31 08:24:55;;;;;;;19.90;7.68;;;;;;;14.53;65.17;94001.75;5046154;28;20315;-81
2023/10/31 08:27:20;;;;;;;27.73;6.93;;;;;;;14.62;64.99;93986.34;5046133;28;20063;-82
2023/10/31 08:29:45;;;;;;;18.45;7.22;;;;;;;14.51;64.76;93985.22;5046222;28;20052;-83
2023/10/31 08:35:14;;;;;;;24.77;6.90;;;;;;;14.81;63.60;93977.72;5045127;28;20036;-83
2023/10/31 08:37:39;;;;;;;21.25;6.60;;;;;;;14.85;63.51;93964.44;5045518;28;20237;-81
2023/10/31 08:40:05;;;;;;;16.50;6.78;;;;;;;14.96;62.88;93972.81;5046046;28;20059;-82
2023/10/31 08:42:31;;;;;;;16.73;7.43;;;;;;;15.09;61.82;93962.84;5045715;28;20319;-82
2023/10/31 08:44:56;;;;;;;16.00;6.68;;;;;;;15.20;61.50;93962.03;5044712;28;20059;-83
2023/10/31 08:47:24;;;;;;;20.77;7.95;;;;;;;15.33;61.34;93962.78;5045919;28;20029;-82
2023/10/31 08:49:51;;;;;;;26.17;8.10;;;;;;;15.49;60.66;93959.38;5045987;28;20339;-82
2023/10/31 08:52:17;;;;;;;24.02;6.65;;;;;;;15.60;59.19;93949.72;5044691;28;20029;-81
2023/10/31 08:54:43;;;;;;;22.10;7.78;;;;;;;15.71;58.95;93936.56;5044405;28;20033;-85
2023/10/31 08:57:14;;;;;;;16.50;7.22;;;;;;;15.79;59.03;93936.47;5047032;28;20095;-90
2023/10/31 08:59:40;;;;;;;22.25;6.85;;;;;;;15.93;58.75;93940.63;5046354;28;20047;-89
2023/10/31 09:02:06;;;;;;;16.23;6.07;;;;;;;16.07;56.24;93937.53;5045928;28;20319;-81
2023/10/31 09:04:31;;;;;;;21.08;7.95;;;;;;;16.12;56.20;93932.69;5046046;28;20036;-82
2023/10/31 09:06:57;;;;;;;15.70;6.93;;;;;;;16.07;55.96;93921.41;5045773;28;20049;-84
2023/10/31 09:09:22;;;;;;;21.73;7.03;;;;;;;16.22;56.15;93920.59;5045557;28;20096;-83
2023/10/31 09:11:47;;;;;;;21.50;5.70;;;;;;;16.34;54.72;93903.63;5045649;28;20045;-84
2023/10/31 09:14:20;;;;;;;14.25;5.38;;;;;;;16.40;52.89;93910.28;5045522;28;20041;-80
2023/10/31 09:16:46;;;;;;;23.23;6.00;;;;;;;16.46;52.89;93906.19;5043786;28;20381;-85
2023/10/31 09:19:11;;;;;;;17.13;5.35;;;;;;;16.55;53.24;93898.75;5044117;28;20041;-84
2023/10/31 09:21:37;;;;;;;17.75;5.20;;;;;;;16.71;53.61;93903.31;5044375;28;20017;-88
2023/10/31 09:24:03;;;;;;;21.15;5.60;;;;;;;16.84;53.00;93894.03;5046053;28;20026;-86
2023/10/31 09:26:30;;;;;;;19.55;6.70;;;;;;;16.96;51.75;93887.75;5044281;28;20018;-84
2023/10/31 09:28:56;;;;;;;27.17;5.82;;;;;;;17.00;52.43;93880.53;5044191;28;20025;-82
2023/10/31 09:31:24;;;;;;;19.55;5.57;;;;;;;17.09;52.30;93877.63;5045378;28;20220;-80
2023/10/31 09:33:49;;;;;;;19.98;4.50;;;;;;;17.16;51.19;93877.78;5045015;28;20033;-83
2023/10/31 09:36:15;;;;;;;15.52;5.97;;;;;;;17.30;49.94;93867.28;5045472;28;20029;-79
2023/10/31 09:38:41;;;;;;;12.27;4.20;;;;;;;17.40;50.70;93863.22;5045587;28;20056;-80
2023/10/31 09:41:06;;;;;;;14.63;3.83;;;;;;;17.44;49.09;93870.25;5045365;28;20029;-81
2023/10/31 09:43:32;;;;;;;27.08;5.93;;;;;;;17.60;49.18;93861.28;5043907;28;20032;-81
2023/10/31 09:45:58;;;;;;;11.68;5.22;;;;;;;17.73;49.04;93846.53;5044877;28;20049;-83
2023/10/31 09:48:24;;;;;;;17.58;5.20;;;;;;;17.78;48.98;93840.06;5044010;28;20025;-80
2023/10/31 09:50:53;;;;;;;12.52;3.80;;;;;;;17.76;48.01;93842.31;5044863;28;20143;-77
2023/10/31 09:53:19;;;;;;;15.65;3.88;;;;;;;17.97;47.57;93839.22;5044524;28;20041;-76
2023/10/31 09:55:46;;;;;;;9.68;2.67;;;;;;;18.15;47.80;93826.03;5044542;28;20307;-76
2023/10/31 09:58:12;;;;;;;13.82;2.92;;;;;;;18.27;46.76;93830.47;5044547;28;20104;-76
2023/10/31 10:00:40;;;;;;;23.50;3.55;;;;;;;18.46;45.42;93822.28;5044488;28;20032;-74
2023/10/31 10:03:09;;;;;;;16.60;3.15;;;;;;;18.53;44.67;93827.00;5044240;28;20025;-74
2023/10/31 10:05:35;;;;;;;10.25;3.30;;;;;;;18.57;45.47;93817.03;5044420;28;20025;-76
2023/10/31 10:08:01;;;;;;;12.85;3.25;;;;;;;18.81;45.83;93815.84;5044097;28;20037;-76
2023/10/31 10:10:26;;;;;;;11.75;3.17;;;;;;;19.02;44.38;93805.31;5044318;28;20021;-73
2023/10/31 10:12:52;;;;;;;12.23;3.05;;;;;;;19.11;42.89;93796.13;5044370;28;20372;-74
2023/10/31 10:15:18;;;;;;;10.75;3.10;;;;;;;19.29;43.35;93794.41;5044103;28;20029;-74
2023/10/31 10:17:51;;;;;;;9.60;2.50;;;;;;;19.45;43.80;93784.16;5044233;28;20029;-73
2023/10/31 10:20:18;;;;;;;8.27;3.00;;;;;;;19.70;42.77;93789.06;5043999;28;20082;-80
2023/10/31 10:22:47;;;;;;;17.13;3.25;;;;;;;19.87;40.53;93792.31;5044111;28;20025;-77
2023/10/31 10:25:18;;;;;;;9.90;2.83;;;;;;;19.88;40.68;93783.81;5043779;28;20044;-77
2023/10/31 10:27:44;;;;;;;9.10;3.03;;;;;;;19.97;40.53;93775.41;5043506;28;20373;-77
2023/10/31 10:30:12;;;;;;;10.07;3.10;;;;;;;19.95;40.85;93775.00;5043628;28;20040;-77
2023/10/31 10:32:37;;;;;;;11.35;2.45;;;;;;;19.84;40.60;93774.88;5043780;28;20051;-77
2023/10/31 10:35:03;;;;;;;8.10;2.60;;;;;;;19.82;40.63;93774.47;5042597;28;20048;-77
2023/10/31 10:37:30;;;;;;;11.30;2.72;;;;;;;19.96;41.15;93763.00;5043651;28;20022;-77
2023/10/31 10:39:56;;;;;;;8.73;2.42;;;;;;;20.13;40.67;93762.38;5042464;28;20045;-77
2023/10/31 10:42:50;;;;;;;8.88;2.70;;;;;;;20.37;39.59;93760.19;5043616;28;20030;-77
2023/10/31 10:45:18;;;;;;;10.60;2.38;;;;;;;20.57;38.24;93742.53;5041184;28;20037;-78
2023/10/31 10:47:50;;;;;;;10.85;3.03;;;;;;;20.78;39.08;93728.34;5042348;28;20030;-77
2023/10/31 10:50:18;;;;;;;10.55;2.95;;;;;;;20.80;38.78;93733.38;5043592;28;20029;-77
2023/10/31 10:53:13;;;;;;;11.88;2.63;;;;;;;21.06;37.92;93729.59;5043609;28;20032;-77
2023/10/31 10:55:45;;;;;;;7.47;2.10;;;;;;;21.19;37.06;93730.03;5042449;28;20037;-77
2023/10/31 10:58:22;;;;;;;5.90;2.08;;;;;;;21.34;36.42;93728.88;5043375;28;20307;-78
2023/10/31 11:00:49;;;;;;;8.05;3.00;;;;;;;21.41;36.23;93707.22;5043403;28;20029;-77
2023/10/31 11:03:19;;;;;;;13.25;2.45;;;;;;;21.52;36.50;93712.69;5042223;28;20025;-77
2023/10/31 11:05:45;;;;;;;7.53;2.55;;;;;;;21.55;36.86;93717.31;5043443;28;20334;-77
2023/10/31 11:08:11;;;;;;;8.10;3.20;;;;;;;21.59;36.29;93711.91;5043128;28;20021;-77
2023/10/31 11:10:39;;;;;;;7.15;2.67;;;;;;;21.46;35.39;93710.75;5043217;28;20029;-77
2023/10/31 11:13:07;;;;;;;9.18;2.40;;;;;;;21.47;35.84;93710.34;5043012;28;20216;-78
2023/10/31 11:15:33;;;;;;;10.73;2.80;;;;;;;21.56;35.96;93710.75;5042894;28;20075;-77
2023/10/31 11:18:00;;;;;;;10.55;3.17;;;;;;;21.61;35.35;93698.72;5042753;28;20033;-77
2023/10/31 11:20:28;;;;;;;10.25;3.03;;;;;;;21.68;35.13;93693.31;5043000;28;20228;-77
2023/10/31 11:23:00;;;;;;;9.73;2.67;;;;;;;21.75;35.02;93687.88;5042996;28;20270;-77
2023/10/31 11:25:25;;;;;;;6.37;2.47;;;;;;;21.80;34.79;93681.31;5042973;28;20060;-77
2023/10/31 11:27:51;;;;;;;14.68;2.70;;;;;;;21.80;34.22;93675.88;5042814;28;20017;-77